createdAt,value
2019-06-26T00:01:14.013Z,98.60
2019-06-26T00:03:42.625Z,98.60
2019-06-26T00:06:11.240Z,98.60
2019-06-26T00:08:39.911Z,98.80
2019-06-26T00:11:08.583Z,99.00
2019-06-26T00:13:37.225Z,98.80
2019-06-26T00:16:05.889Z,98.80
2019-06-26T00:18:34.611Z,98.90
2019-06-26T00:21:03.228Z,99.10
2019-06-26T00:23:31.846Z,99.20
2019-06-26T00:26:00.567Z,99.30
2019-06-26T00:28:29.068Z,99.20
2019-06-26T00:30:57.658Z,99.30
2019-06-26T00:33:26.161Z,99.40
2019-06-26T00:35:54.912Z,99.50
2019-06-26T00:38:23.482Z,99.60
2019-06-26T00:40:52.159Z,99.70
2019-06-26T00:43:21.406Z,99.80
2019-06-26T00:45:50.164Z,99.90
2019-06-26T00:48:18.779Z,99.80
2019-06-26T00:50:47.410Z,99.70
2019-06-26T00:53:15.968Z,99.80
2019-06-26T00:55:44.499Z,99.70
2019-06-26T00:58:13.081Z,99.80
2019-06-26T01:00:44.747Z,99.90
2019-06-26T01:03:13.347Z,99.90
2019-06-26T01:05:41.956Z,99.90
2019-06-26T01:08:10.518Z,99.90
2019-06-26T01:10:39.205Z,99.90
2019-06-26T01:13:08.083Z,99.90
2019-06-26T01:15:36.683Z,99.90
2019-06-26T01:18:05.395Z,99.90
2019-06-26T01:20:34.106Z,99.90
2019-06-26T01:23:02.785Z,99.90
2019-06-26T01:25:31.438Z,99.90
2019-06-26T01:27:59.999Z,99.90
2019-06-26T01:30:28.708Z,99.90
2019-06-26T01:32:57.331Z,99.90
2019-06-26T01:35:26.106Z,99.90
2019-06-26T01:37:54.937Z,99.90
2019-06-26T01:40:23.666Z,99.90
2019-06-26T01:42:52.301Z,99.90
2019-06-26T01:45:21.099Z,99.90
2019-06-26T01:47:49.779Z,99.90
2019-06-26T01:50:19.341Z,99.90
2019-06-26T01:52:47.968Z,99.90
2019-06-26T01:55:16.958Z,99.90
2019-06-26T01:57:45.620Z,99.90
2019-06-26T02:00:14.727Z,99.90
2019-06-26T02:02:43.399Z,99.90
2019-06-26T02:05:12.323Z,99.90
2019-06-26T02:07:41.097Z,99.90
2019-06-26T02:10:10.211Z,99.90
2019-06-26T02:12:38.853Z,99.90
2019-06-26T02:15:08.070Z,99.90
2019-06-26T02:17:38.765Z,99.90
2019-06-26T02:20:07.790Z,99.90
2019-06-26T02:22:36.429Z,99.90
2019-06-26T02:25:06.540Z,99.90
2019-06-26T02:27:39.744Z,99.90
2019-06-26T02:30:08.690Z,99.90
2019-06-26T02:32:37.568Z,99.90
2019-06-26T02:35:25.551Z,99.90
2019-06-26T02:37:54.130Z,99.90
2019-06-26T02:40:22.933Z,99.90
2019-06-26T02:42:51.619Z,99.90
2019-06-26T02:45:20.514Z,99.90
2019-06-26T02:47:49.064Z,99.90
2019-06-26T02:50:17.845Z,99.90
2019-06-26T02:52:46.553Z,99.90
2019-06-26T02:55:19.904Z,99.90
2019-06-26T02:57:45.981Z,99.90
2019-06-26T03:00:16.115Z,99.90
2019-06-26T03:02:44.686Z,99.90
2019-06-26T03:05:13.411Z,99.90
2019-06-26T03:07:42.030Z,99.90
2019-06-26T03:10:11.817Z,99.90
2019-06-26T03:12:40.732Z,99.90
2019-06-26T03:15:10.289Z,99.90
2019-06-26T03:17:54.012Z,99.90
2019-06-26T03:20:09.952Z,99.90
2019-06-26T03:22:38.772Z,99.90
2019-06-26T03:25:07.563Z,99.90
2019-06-26T03:27:36.224Z,99.90
2019-06-26T03:30:06.999Z,99.90
2019-06-26T03:32:35.659Z,99.90
2019-06-26T03:35:05.897Z,99.90
2019-06-26T03:37:34.619Z,99.90
2019-06-26T03:40:04.261Z,99.90
2019-06-26T03:42:32.903Z,99.90
2019-06-26T03:45:01.582Z,99.90
2019-06-26T03:47:30.385Z,99.90
2019-06-26T03:49:58.963Z,99.90
2019-06-26T03:52:27.538Z,99.90
2019-06-26T03:54:56.029Z,99.90
2019-06-26T03:57:24.743Z,99.90
2019-06-26T03:59:53.392Z,99.90
2019-06-26T04:02:22.033Z,99.90
2019-06-26T04:04:50.593Z,99.90
2019-06-26T04:07:19.228Z,99.90
2019-06-26T04:09:47.692Z,99.90
2019-06-26T04:12:16.309Z,99.90
2019-06-26T04:14:44.798Z,99.90
2019-06-26T04:17:13.412Z,99.90
2019-06-26T04:19:41.988Z,99.90
2019-06-26T04:22:10.664Z,99.90
2019-06-26T04:24:39.250Z,99.90
2019-06-26T04:27:07.745Z,99.90
2019-06-26T04:29:36.390Z,99.90
2019-06-26T04:32:04.948Z,99.90
2019-06-26T04:34:33.686Z,99.90
2019-06-26T04:37:02.241Z,99.90
2019-06-26T04:39:30.806Z,99.90
2019-06-26T04:41:59.436Z,99.90
2019-06-26T04:44:28.019Z,99.90
2019-06-26T04:46:56.668Z,99.90
2019-06-26T04:49:25.285Z,99.90
2019-06-26T04:51:53.783Z,99.90
2019-06-26T04:54:22.394Z,99.90
2019-06-26T04:56:51.068Z,99.90
2019-06-26T04:59:19.589Z,99.90
2019-06-26T05:01:48.217Z,99.90
2019-06-26T05:04:16.747Z,99.90
2019-06-26T05:06:45.322Z,99.90
2019-06-26T05:09:13.882Z,99.90
2019-06-26T05:11:42.522Z,99.90
2019-06-26T05:14:11.035Z,99.90
2019-06-26T05:16:39.718Z,99.90
2019-06-26T05:19:11.601Z,99.90
2019-06-26T05:21:40.425Z,99.90
2019-06-26T05:24:21.155Z,99.90
2019-06-26T05:26:50.004Z,99.90
2019-06-26T05:29:18.692Z,99.90
2019-06-26T05:31:47.475Z,99.90
2019-06-26T05:34:16.171Z,99.90
2019-06-26T05:36:45.092Z,99.90
2019-06-26T05:39:13.791Z,99.90
2019-06-26T05:41:42.272Z,99.90
2019-06-26T05:44:10.918Z,99.90
2019-06-26T05:46:39.452Z,99.90
2019-06-26T05:49:08.174Z,99.90
2019-06-26T05:51:36.872Z,99.90
2019-06-26T05:54:05.659Z,99.90
2019-06-26T05:56:34.295Z,99.90
2019-06-26T05:59:03.012Z,99.90
2019-06-26T06:01:32.039Z,99.90
2019-06-26T06:04:00.639Z,99.90
2019-06-26T06:06:41.079Z,99.90
2019-06-26T06:08:59.616Z,99.90
2019-06-26T06:11:28.206Z,99.90
2019-06-26T06:13:56.935Z,99.90
2019-06-26T06:16:25.697Z,99.70
2019-06-26T06:18:54.511Z,99.90
2019-06-26T06:21:23.112Z,99.40
2019-06-26T06:23:51.816Z,99.50
2019-06-26T06:26:20.419Z,99.20
2019-06-26T06:28:49.069Z,99.40
2019-06-26T06:31:17.636Z,99.30
2019-06-26T06:33:46.399Z,99.30
2019-06-26T06:36:14.888Z,99.20
2019-06-26T06:38:43.459Z,99.50
2019-06-26T06:41:12.023Z,99.20
2019-06-26T06:43:40.695Z,99.30
2019-06-26T06:46:09.377Z,99.40
2019-06-26T06:48:38.113Z,99.30
2019-06-26T06:51:06.809Z,99.10
2019-06-26T06:53:35.436Z,99.10
2019-06-26T06:56:03.987Z,99.40
2019-06-26T06:58:32.595Z,99.30
2019-06-26T07:01:01.228Z,99.40
2019-06-26T07:03:29.877Z,99.00
2019-06-26T07:05:58.916Z,99.20
2019-06-26T07:08:30.733Z,99.20
2019-06-26T07:11:02.425Z,99.10
2019-06-26T07:13:31.278Z,98.90
2019-06-26T07:16:00.064Z,98.70
2019-06-26T07:18:28.879Z,98.60
2019-06-26T07:20:57.692Z,98.60
2019-06-26T07:23:26.409Z,98.90
2019-06-26T07:25:55.117Z,98.90
2019-06-26T07:28:23.733Z,98.80
2019-06-26T07:30:52.638Z,99.10
2019-06-26T07:33:21.204Z,98.80
2019-06-26T07:35:49.912Z,98.90
2019-06-26T07:38:18.501Z,98.80
2019-06-26T07:40:47.039Z,98.60
2019-06-26T07:43:33.727Z,98.50
2019-06-26T07:49:35.766Z,98.40
2019-06-26T07:52:04.555Z,98.30
2019-06-26T07:54:33.067Z,98.40
2019-06-26T07:59:36.382Z,98.10
2019-06-26T08:02:04.987Z,98.00
2019-06-26T08:04:33.695Z,98.00
2019-06-26T08:07:02.373Z,98.00
2019-06-26T08:09:31.034Z,98.10
2019-06-26T08:11:59.632Z,97.90
2019-06-26T08:14:28.233Z,97.60
2019-06-26T08:16:56.816Z,97.60
2019-06-26T08:19:25.438Z,97.40
2019-06-26T08:21:54.087Z,97.30
2019-06-26T08:24:22.628Z,97.20
2019-06-26T08:26:51.258Z,97.00
2019-06-26T08:29:19.797Z,97.20
2019-06-26T08:31:56.153Z,96.90
2019-06-26T08:34:24.901Z,96.80
2019-06-26T08:36:53.565Z,96.90
2019-06-26T08:39:22.099Z,96.60
2019-06-26T08:41:54.115Z,96.90
2019-06-26T08:44:23.392Z,96.40
2019-06-26T08:46:52.045Z,96.00
2019-06-26T08:49:25.603Z,95.70
2019-06-26T08:51:51.022Z,95.30
2019-06-26T08:54:19.614Z,95.30
2019-06-26T08:56:48.266Z,95.70
2019-06-26T08:59:16.912Z,95.60
2019-06-26T09:01:45.627Z,95.50
2019-06-26T09:04:39.540Z,95.30
2019-06-26T09:07:25.226Z,95.50
2019-06-26T09:09:53.859Z,95.30
2019-06-26T09:12:22.466Z,94.90
2019-06-26T09:14:51.160Z,94.50
2019-06-26T09:17:20.070Z,93.80
2019-06-26T09:19:48.646Z,93.60
2019-06-26T09:22:17.249Z,92.70
2019-06-26T09:24:45.912Z,93.10
2019-06-26T09:27:15.150Z,93.10
2019-06-26T09:29:54.057Z,93.10
2019-06-26T09:32:22.860Z,92.80
2019-06-26T09:34:51.569Z,92.50
2019-06-26T09:37:20.162Z,92.30
2019-06-26T09:39:48.804Z,91.60
2019-06-26T09:42:19.691Z,91.30
2019-06-26T09:44:48.139Z,91.40
2019-06-26T09:47:16.852Z,91.00
2019-06-26T09:49:45.518Z,91.40
2019-06-26T09:52:14.224Z,91.20
2019-06-26T09:54:42.893Z,91.40
2019-06-26T09:57:11.682Z,91.10
2019-06-26T09:59:40.267Z,90.50
2019-06-26T10:02:08.952Z,90.90
2019-06-26T10:04:37.673Z,90.40
2019-06-26T10:07:06.385Z,90.30
2019-06-26T10:09:34.966Z,90.00
2019-06-26T10:12:03.672Z,90.30
2019-06-26T10:14:46.547Z,89.60
2019-06-26T10:17:05.096Z,89.30
2019-06-26T10:19:33.798Z,88.20
2019-06-26T10:22:02.361Z,89.20
2019-06-26T10:24:30.935Z,87.70
2019-06-26T10:26:59.716Z,87.20
2019-06-26T10:29:28.441Z,84.80
2019-06-26T10:31:57.026Z,85.10
2019-06-26T10:34:25.739Z,83.60
2019-06-26T10:36:54.373Z,83.70
2019-06-26T10:39:23.054Z,84.10
2019-06-26T10:41:55.019Z,83.20
2019-06-26T10:44:23.346Z,82.90
2019-06-26T10:46:52.083Z,82.00
2019-06-26T10:49:27.096Z,80.10
2019-06-26T10:51:50.963Z,80.40
2019-06-26T10:54:19.706Z,79.40
2019-06-26T10:56:48.258Z,79.10
2019-06-26T10:59:16.958Z,77.30
2019-06-26T11:01:45.613Z,76.90
2019-06-26T11:04:17.327Z,76.80
2019-06-26T11:06:46.117Z,74.80
2019-06-26T11:09:35.858Z,77.20
2019-06-26T11:12:04.586Z,76.60
2019-06-26T11:14:33.181Z,74.30
2019-06-26T11:17:01.781Z,75.20
2019-06-26T11:19:43.300Z,76.20
2019-06-26T11:22:00.800Z,75.10
2019-06-26T11:24:29.555Z,75.70
2019-06-26T11:26:58.147Z,76.70
2019-06-26T11:29:26.711Z,75.50
2019-06-26T11:31:57.910Z,75.40
2019-06-26T11:34:26.483Z,75.50
2019-06-26T11:37:03.775Z,74.70
2019-06-26T11:39:25.522Z,74.30
2019-06-26T11:41:54.286Z,73.90
2019-06-26T11:44:22.987Z,74.60
2019-06-26T11:46:51.648Z,74.50
2019-06-26T11:49:20.189Z,73.70
2019-06-26T11:51:48.918Z,74.90
2019-06-26T11:54:17.578Z,74.20
2019-06-26T11:56:46.235Z,73.10
2019-06-26T11:59:14.877Z,75.50
2019-06-26T12:01:43.505Z,75.30
2019-06-26T12:04:12.280Z,75.20
2019-06-26T12:06:40.999Z,74.50
2019-06-26T12:09:09.787Z,73.90
2019-06-26T12:11:38.501Z,74.30
2019-06-26T12:14:07.193Z,74.70
2019-06-26T12:16:35.885Z,74.40
2019-06-26T12:19:04.577Z,74.50
2019-06-26T12:21:33.407Z,76.10
2019-06-26T12:24:01.941Z,74.90
2019-06-26T12:26:30.610Z,74.40
2019-06-26T12:28:59.248Z,75.00
2019-06-26T12:31:27.962Z,76.30
2019-06-26T12:33:56.523Z,75.50
2019-06-26T12:36:25.491Z,75.60
2019-06-26T12:38:54.217Z,75.90
2019-06-26T12:41:22.874Z,74.40
2019-06-26T12:43:51.610Z,73.80
2019-06-26T12:46:20.590Z,73.60
2019-06-26T12:48:49.324Z,72.70
2019-06-26T12:51:17.935Z,71.80
2019-06-26T12:53:46.444Z,72.10
2019-06-26T12:56:15.271Z,71.40
2019-06-26T12:58:43.917Z,71.60
2019-06-26T13:01:12.465Z,71.20
2019-06-26T13:03:41.128Z,71.00
2019-06-26T13:06:09.882Z,70.70
2019-06-26T13:08:38.484Z,70.70
2019-06-26T13:11:07.186Z,70.80
2019-06-26T13:13:35.757Z,70.50
2019-06-26T13:16:04.519Z,70.10
2019-06-26T13:18:33.135Z,70.50
2019-06-26T13:21:05.077Z,68.50
2019-06-26T13:23:32.208Z,69.30
2019-06-26T13:26:00.968Z,68.90
2019-06-26T13:28:29.695Z,69.20
2019-06-26T13:30:58.431Z,69.90
2019-06-26T13:33:27.069Z,69.60
2019-06-26T13:35:55.719Z,69.50
2019-06-26T13:38:27.083Z,69.10
2019-06-26T13:40:55.001Z,69.30
2019-06-26T13:43:23.650Z,69.50
2019-06-26T13:45:52.369Z,69.20
2019-06-26T13:48:21.021Z,68.30
2019-06-26T13:50:49.809Z,69.60
2019-06-26T13:53:18.392Z,69.90
2019-06-26T13:55:46.963Z,70.00
2019-06-26T13:58:15.676Z,69.50
2019-06-26T14:00:44.247Z,69.40
2019-06-26T14:03:12.939Z,69.00
2019-06-26T14:05:41.718Z,67.00
2019-06-26T14:08:10.385Z,67.30
2019-06-26T14:10:39.052Z,68.70
2019-06-26T14:13:07.785Z,67.90
2019-06-26T14:15:36.497Z,66.70
2019-06-26T14:18:05.183Z,66.10
2019-06-26T14:20:34.103Z,67.20
2019-06-26T14:23:02.781Z,67.40
2019-06-26T14:25:31.439Z,67.40
2019-06-26T14:28:00.037Z,67.60
2019-06-26T14:30:28.693Z,68.10
2019-06-26T14:32:57.424Z,68.90
2019-06-26T14:35:26.105Z,68.00
2019-06-26T14:37:54.900Z,67.10
2019-06-26T14:40:23.648Z,67.30
2019-06-26T14:42:52.318Z,67.30
2019-06-26T14:45:21.101Z,67.60
2019-06-26T14:47:52.972Z,67.50
2019-06-26T14:50:21.785Z,68.60
2019-06-26T14:52:58.645Z,67.80
2019-06-26T14:55:27.234Z,67.50
2019-06-26T14:57:55.936Z,68.60
2019-06-26T15:00:24.787Z,67.60
2019-06-26T15:02:53.716Z,67.20
2019-06-26T15:05:22.389Z,68.00
2019-06-26T15:07:50.928Z,67.10
2019-06-26T15:10:20.100Z,67.70
2019-06-26T15:12:48.731Z,68.80
2019-06-26T15:15:17.781Z,69.00
2019-06-26T15:17:46.495Z,69.50
2019-06-26T15:20:16.496Z,68.90
2019-06-26T15:22:45.252Z,68.60
2019-06-26T15:25:15.746Z,68.50
2019-06-26T15:27:47.394Z,68.60
2019-06-26T15:30:17.739Z,68.30
2019-06-26T15:32:46.324Z,69.00
2019-06-26T15:35:15.745Z,68.60
2019-06-26T15:37:44.911Z,69.10
2019-06-26T15:40:19.892Z,69.00
2019-06-26T15:42:49.141Z,69.10
2019-06-26T15:45:20.754Z,68.80
2019-06-26T15:47:49.697Z,68.90
2019-06-26T15:50:18.455Z,69.60
2019-06-26T15:52:47.129Z,68.50
2019-06-26T15:55:15.865Z,69.10
2019-06-26T15:57:44.479Z,69.60
2019-06-26T16:00:13.574Z,71.00
2019-06-26T16:02:42.294Z,71.60
2019-06-26T16:05:11.746Z,71.60
2019-06-26T16:07:40.560Z,70.90
2019-06-26T16:10:20.185Z,70.50
2019-06-26T16:12:50.274Z,70.80
2019-06-26T16:15:21.517Z,70.80
2019-06-26T16:17:55.029Z,71.50
2019-06-26T16:20:23.889Z,71.30
2019-06-26T16:22:52.602Z,71.80
2019-06-26T16:25:21.738Z,71.60
2019-06-26T16:28:04.328Z,71.50
2019-06-26T16:30:21.355Z,72.00
2019-06-26T16:32:49.995Z,72.40
2019-06-26T16:35:20.173Z,72.30
2019-06-26T16:37:49.036Z,72.30
2019-06-26T16:40:18.037Z,71.70
2019-06-26T16:42:46.863Z,72.00
2019-06-26T16:45:16.336Z,71.90
2019-06-26T16:47:46.697Z,72.90
2019-06-26T16:50:15.831Z,73.70
2019-06-26T16:52:49.746Z,73.30
2019-06-26T16:55:15.480Z,73.10
2019-06-26T16:57:44.369Z,73.30
2019-06-26T17:00:13.399Z,73.10
2019-06-26T17:02:42.270Z,73.90
2019-06-26T17:05:11.048Z,74.60
2019-06-26T17:07:39.667Z,74.70
2019-06-26T17:10:09.383Z,74.40
2019-06-26T17:12:38.197Z,75.10
2019-06-26T17:15:09.833Z,74.70
2019-06-26T17:17:38.617Z,75.00
2019-06-26T17:20:07.512Z,74.50
2019-06-26T17:22:36.258Z,75.70
2019-06-26T17:25:09.211Z,76.00
2019-06-26T17:27:38.081Z,76.60
2019-06-26T17:30:07.271Z,75.90
2019-06-26T17:32:35.976Z,77.10
2019-06-26T17:35:06.548Z,77.80
2019-06-26T17:37:35.293Z,78.50
2019-06-26T17:40:05.959Z,78.50
2019-06-26T17:42:34.624Z,79.00
2019-06-26T17:45:04.949Z,80.10
2019-06-26T17:47:33.784Z,80.40
2019-06-26T17:50:03.102Z,80.70
2019-06-26T17:52:35.591Z,81.60
2019-06-26T17:55:02.066Z,81.30
2019-06-26T17:57:30.966Z,82.10
2019-06-26T17:59:59.624Z,82.40
2019-06-26T18:02:28.151Z,83.10
2019-06-26T18:04:56.778Z,83.20
2019-06-26T18:07:27.464Z,83.10
2019-06-26T18:09:56.251Z,83.60
2019-06-26T18:12:24.839Z,84.00
2019-06-26T18:14:54.207Z,84.10
2019-06-26T18:17:22.859Z,84.10
2019-06-26T18:19:55.265Z,84.40
2019-06-26T18:22:27.226Z,84.70
2019-06-26T18:24:56.061Z,85.00
2019-06-26T18:27:24.709Z,85.60
2019-06-26T18:29:53.523Z,85.30
2019-06-26T18:32:22.123Z,85.70
2019-06-26T18:34:51.116Z,86.40
2019-06-26T18:37:19.755Z,86.30
2019-06-26T18:39:48.460Z,86.90
2019-06-26T18:42:17.080Z,87.30
2019-06-26T18:44:46.098Z,88.10
2019-06-26T18:47:15.035Z,88.30
2019-06-26T18:49:43.718Z,88.50
2019-06-26T18:54:46.084Z,88.90
2019-06-26T18:57:14.875Z,89.50
2019-06-26T18:59:43.702Z,89.60
2019-06-26T19:02:36.591Z,89.80
2019-06-26T19:05:09.551Z,89.80
2019-06-26T19:07:38.343Z,90.00
2019-06-26T19:10:10.649Z,89.90
2019-06-26T19:12:39.238Z,90.00
2019-06-26T19:15:08.172Z,90.50
2019-06-26T19:17:36.745Z,90.30
2019-06-26T19:20:07.025Z,90.70
2019-06-26T19:22:35.661Z,90.60
2019-06-26T19:25:06.168Z,90.60
2019-06-26T19:27:34.950Z,90.80
2019-06-26T19:30:05.223Z,91.10
2019-06-26T19:32:37.310Z,91.30
2019-06-26T19:35:18.201Z,91.10
2019-06-26T19:37:35.159Z,91.10
2019-06-26T19:40:08.259Z,91.40
2019-06-26T19:42:35.221Z,91.30
2019-06-26T19:45:05.765Z,91.60
2019-06-26T19:47:34.407Z,91.50
2019-06-26T19:50:04.068Z,91.50
2019-06-26T19:52:32.635Z,91.50
2019-06-26T19:55:01.311Z,91.30
2019-06-26T19:57:29.973Z,91.40
2019-06-26T19:59:58.495Z,91.30
2019-06-26T20:02:27.220Z,91.20
2019-06-26T20:04:55.940Z,91.60
2019-06-26T20:07:24.619Z,91.70
2019-06-26T20:09:53.241Z,91.60
2019-06-26T20:12:21.949Z,91.60
2019-06-26T20:14:50.425Z,91.90
2019-06-26T20:17:19.049Z,91.90
2019-06-26T20:19:47.754Z,92.10
2019-06-26T20:22:16.407Z,92.10
2019-06-26T20:24:45.122Z,92.10
2019-06-26T20:27:13.678Z,92.20
2019-06-26T20:29:42.173Z,92.40
2019-06-26T20:32:10.815Z,92.50
2019-06-26T20:34:39.355Z,92.90
2019-06-26T20:37:07.957Z,93.20
2019-06-26T20:39:36.511Z,93.00
2019-06-26T20:42:05.218Z,93.00
2019-06-26T20:44:33.841Z,93.00
2019-06-26T20:47:02.427Z,93.20
2019-06-26T20:49:30.989Z,93.30
2019-06-26T20:51:59.565Z,93.30
2019-06-26T20:54:28.293Z,93.40
2019-06-26T20:56:56.911Z,93.40
2019-06-26T20:59:25.578Z,93.60
2019-06-26T21:01:54.282Z,93.60
2019-06-26T21:04:22.967Z,93.70
2019-06-26T21:06:51.626Z,94.10
2019-06-26T21:09:20.212Z,93.70
2019-06-26T21:11:48.773Z,93.70
2019-06-26T21:14:17.355Z,94.00
2019-06-26T21:16:46.056Z,94.10
2019-06-26T21:19:14.647Z,94.20
2019-06-26T21:24:17.677Z,94.70
2019-06-26T21:26:46.161Z,94.70
2019-06-26T21:29:16.326Z,94.50
2019-06-26T21:31:44.875Z,94.60
2019-06-26T21:34:14.746Z,94.90
2019-06-26T21:36:43.433Z,94.90
2019-06-26T21:39:12.090Z,95.10
2019-06-26T21:41:40.637Z,95.30
2019-06-26T21:44:09.276Z,95.30
2019-06-26T21:46:37.790Z,95.30
2019-06-26T21:49:06.355Z,95.30
2019-06-26T21:51:34.950Z,95.30
2019-06-26T21:54:03.600Z,95.40
2019-06-26T21:56:32.165Z,95.70
2019-06-26T21:59:00.825Z,95.80
2019-06-26T22:01:29.731Z,95.70
2019-06-26T22:03:58.312Z,96.20
2019-06-26T22:06:27.124Z,96.10
2019-06-26T22:08:55.677Z,96.00
2019-06-26T22:11:24.385Z,96.50
2019-06-26T22:13:52.948Z,96.20
2019-06-26T22:16:21.551Z,96.40
2019-06-26T22:18:50.121Z,96.40
2019-06-26T22:21:18.702Z,96.50
2019-06-26T22:23:47.376Z,96.70
2019-06-26T22:26:15.954Z,96.70
2019-06-26T22:28:47.044Z,96.90
2019-06-26T22:31:15.690Z,96.70
2019-06-26T22:33:44.168Z,96.50
2019-06-26T22:36:12.875Z,96.90
2019-06-26T22:38:53.890Z,96.80
2019-06-26T22:41:22.698Z,97.00
2019-06-26T22:43:51.450Z,97.30
2019-06-26T22:46:20.135Z,97.20
2019-06-26T22:48:48.847Z,97.40
2019-06-26T22:51:17.427Z,97.50
2019-06-26T22:53:46.605Z,97.40
2019-06-26T22:56:15.177Z,97.50
2019-06-26T22:58:48.197Z,97.30
2019-06-26T23:01:16.782Z,97.40
2019-06-26T23:04:03.583Z,97.40
2019-06-26T23:06:38.794Z,97.40
2019-06-26T23:09:08.430Z,97.50
2019-06-26T23:11:41.044Z,97.80
2019-06-26T23:14:17.068Z,97.90
2019-06-26T23:16:45.674Z,98.00
2019-06-26T23:19:15.107Z,97.80
2019-06-26T23:21:43.964Z,97.70
2019-06-26T23:24:12.567Z,97.90
2019-06-26T23:26:41.046Z,98.10
2019-06-26T23:29:09.572Z,98.20
2019-06-26T23:31:38.210Z,98.40
2019-06-26T23:34:06.794Z,98.40
2019-06-26T23:36:35.342Z,98.20
2019-06-26T23:39:05.364Z,98.10
2019-06-26T23:41:33.920Z,98.20
2019-06-26T23:44:02.599Z,98.20
2019-06-26T23:46:31.141Z,98.20
2019-06-26T23:48:59.686Z,98.20
2019-06-26T23:51:28.161Z,98.60
2019-06-26T23:53:56.648Z,98.80
2019-06-26T23:56:39.523Z,98.70
2019-06-26T23:58:55.548Z,98.70
